Buoy 13569

sailwx.info

Track history (hours):
 
Tides and Currents Weather Stations Pressure Air Temp Water Temp Dewpoint Dewpoint Depression Visibility Wind Speed Wind Dir Waves Ship Positions

Drifting buoy 13569

Last reported at 2015-Jul-04 16:00 UTC. Time now 2015-Jul-04 19:06 UTC.
Position N 26°52' W 030°33'.

Barometer 1024.3 mb
Water temperature 25.6 ° C

Date/timePositionNaut miles runAvg speedWind from/ knotsBaromVisibWave heightAir tempDewpointWater temp
2015-Jul-04 16:00N 26°52' W 030°33'4 1.0 1024.3 25.6
2015-Jul-04 12:00N 26°56' W 030°35'2 1.7 1025.1 25.1
2015-Jul-04 11:00N 26°55' W 030°33'2 1.1 1025.1 25.1
2015-Jul-04 09:00N 26°56' W 030°35'0 0.0 1024.8 24.9
2015-Jul-04 08:00N 26°56' W 030°35'2 0.2 1024.5 24.9
2015-Jul-03 23:00N 26°56' W 030°38'1 0.1 1025.0 25.0
2015-Jul-03 16:00N 26°56' W 030°37'0 0.5 1024.1 25.2
2015-Jul-03 15:00N 26°56' W 030°36'3 0.5 1024.1 25.2
2015-Jul-03 09:00N 26°59' W 030°37'1 0.3 1024.0 24.9
2015-Jul-03 05:00N 26°60' W 030°38'2 0.7 1023.2 25.0
2015-Jul-03 02:00N 27°00' W 030°40'0 0.1 1024.1 25.0
2015-Jul-02 23:00N 27°00' W 030°41'0 0.2 1024.3 25.1
2015-Jul-02 22:00N 27°00' W 030°41'1 0.2 1024.0 25.1
2015-Jul-02 19:00N 26°60' W 030°40'0 0.0 1023.0 25.3
2015-Jul-02 17:00N 26°60' W 030°40'1 0.2 1023.0 25.3
2015-Jul-02 12:00N 27°00' W 030°39'1 0.6 1024.0 25.1
2015-Jul-02 11:00N 27°01' W 030°40'1 0.2 1023.9 25.0
2015-Jul-02 05:00N 27°02' W 030°40'4 0.2 1023.0 25.1
2015-Jul-01 14:00N 27°02' W 030°44'0 0.0 1023.5 25.3
2015-Jul-01 11:00N 27°02' W 030°44'1 0.2 1023.7 25.2
2015-Jul-01 08:00N 27°03' W 030°44'0 0.1 1022.4 25.1
2015-Jul-01 07:00N 27°03' W 030°44'5 0.6 1022.0 25.2
2015-Jun-30 23:00N 27°08' W 030°44'1 0.5 1023.2 25.4
2015-Jun-30 20:00N 27°09' W 030°45'2 0.2 1022.5 25.5
2015-Jun-30 08:00N 27°08' W 030°48'8 0.6 1022.5 24.9
2015-Jun-29 19:00N 27°15' W 030°50'1 0.3 1022.4 25.9
2015-Jun-29 17:00N 27°15' W 030°51'1 0.3 1022.5 25.9
2015-Jun-29 12:00N 27°15' W 030°53'2 0.3 1024.1 25.4
2015-Jun-29 06:00N 27°14' W 030°51'3 1.6 1022.2 25.2
2015-Jun-29 04:00N 27°17' W 030°50'1 0.1 1022.7 25.4
2015-Jun-28 23:00N 27°17' W 030°51'8 0.7 1024.0 26.1
2015-Jun-28 10:00N 27°22' W 030°58'1 0.2 1023.5 25.3
2015-Jun-28 05:00N 27°21' W 030°58'9 0.5 1022.7 25.1
2015-Jun-27 12:00N 27°29' W 031°02'0 0.1 1024.1 25.0
2015-Jun-27 11:00N 27°29' W 031°02'4 0.2 1024.0 25.0
2015-Jun-26 16:00N 27°33' W 031°02'2 0.6 1025.5 25.2
2015-Jun-26 12:00N 27°34' W 031°04'1 0.4 1026.5 24.6
2015-Jun-26 09:00N 27°34' W 031°05'0 0.5 1026.0 24.4
2015-Jun-26 08:00N 27°33' W 031°05'0 0.1 1025.8 24.4
2015-Jun-26 07:00N 27°33' W 031°05'0 0.0 1025.4 24.4
2015-Jun-26 06:00N 27°33' W 031°05'1 0.6 1025.3 24.4
2015-Jun-26 04:00N 27°33' W 031°04'3 2.8 1025.5 24.4
2015-Jun-26 03:00N 27°35' W 031°02'2 0.5 1025.9 24.5
2015-Jun-25 23:00N 27°37' W 031°01'2 2.0 1026.6 24.6
2015-Jun-25 22:00N 27°35' W 031°02'5 1.7 1026.3 24.7
2015-Jun-25 19:00N 27°40' W 031°03'0 0.0 1025.5 25.0
2015-Jun-25 18:00N 27°40' W 031°03'0 0.0 1025.5 25.0
2015-Jun-25 16:00N 27°40' W 031°03'2 0.4 1025.5 25.0
2015-Jun-25 11:00N 27°41' W 031°05'0 0.0 1026.0 24.3
2015-Jun-25 10:00N 27°41' W 031°05'0 0.1 1026.0 24.3
2015-Jun-25 07:00N 27°41' W 031°05'3 0.4 1024.9 24.2
2015-Jun-24 23:00N 27°44' W 031°03'0 0.0 1025.9 24.3
2015-Jun-24 22:00N 27°44' W 031°03'4 1.5 1025.5 24.4
2015-Jun-24 19:00N 27°48' W 031°03'   1024.5 24.5
Track history (hours):
 
Tides and Currents Weather Stations Pressure Air Temp Water Temp Dewpoint Dewpoint Depression Visibility Wind Speed Wind Dir Waves Ship Positions

Drifting buoy 13569

Last reported at 2015-Jul-04 16:00 UTC. Time now 2015-Jul-04 19:06 UTC.
Position N 26°52' W 030°33'.

Barometer 1024.3 mb
Water temperature 25.6 ° C

Date/timePositionNaut miles runAvg speedWind from/ knotsBaromVisibWave heightAir tempDewpointWater temp
2015-Jul-04 16:00N 26°52' W 030°33'4 1.0 1024.3 25.6
2015-Jul-04 12:00N 26°56' W 030°35'2 1.7 1025.1 25.1
2015-Jul-04 11:00N 26°55' W 030°33'2 1.1 1025.1 25.1
2015-Jul-04 09:00N 26°56' W 030°35'0 0.0 1024.8 24.9
2015-Jul-04 08:00N 26°56' W 030°35'2 0.2 1024.5 24.9
2015-Jul-03 23:00N 26°56' W 030°38'1 0.1 1025.0 25.0
2015-Jul-03 16:00N 26°56' W 030°37'0 0.5 1024.1 25.2
2015-Jul-03 15:00N 26°56' W 030°36'3 0.5 1024.1 25.2
2015-Jul-03 09:00N 26°59' W 030°37'1 0.3 1024.0 24.9
2015-Jul-03 05:00N 26°60' W 030°38'2 0.7 1023.2 25.0
2015-Jul-03 02:00N 27°00' W 030°40'0 0.1 1024.1 25.0
2015-Jul-02 23:00N 27°00' W 030°41'0 0.2 1024.3 25.1
2015-Jul-02 22:00N 27°00' W 030°41'1 0.2 1024.0 25.1
2015-Jul-02 19:00N 26°60' W 030°40'0 0.0 1023.0 25.3
2015-Jul-02 17:00N 26°60' W 030°40'1 0.2 1023.0 25.3
2015-Jul-02 12:00N 27°00' W 030°39'1 0.6 1024.0 25.1
2015-Jul-02 11:00N 27°01' W 030°40'1 0.2 1023.9 25.0
2015-Jul-02 05:00N 27°02' W 030°40'4 0.2 1023.0 25.1
2015-Jul-01 14:00N 27°02' W 030°44'0 0.0 1023.5 25.3
2015-Jul-01 11:00N 27°02' W 030°44'1 0.2 1023.7 25.2
2015-Jul-01 08:00N 27°03' W 030°44'0 0.1 1022.4 25.1
2015-Jul-01 07:00N 27°03' W 030°44'5 0.6 1022.0 25.2
2015-Jun-30 23:00N 27°08' W 030°44'1 0.5 1023.2 25.4
2015-Jun-30 20:00N 27°09' W 030°45'2 0.2 1022.5 25.5
2015-Jun-30 08:00N 27°08' W 030°48'8 0.6 1022.5 24.9
2015-Jun-29 19:00N 27°15' W 030°50'1 0.3 1022.4 25.9
2015-Jun-29 17:00N 27°15' W 030°51'1 0.3 1022.5 25.9
2015-Jun-29 12:00N 27°15' W 030°53'2 0.3 1024.1 25.4
2015-Jun-29 06:00N 27°14' W 030°51'3 1.6 1022.2 25.2
2015-Jun-29 04:00N 27°17' W 030°50'1 0.1 1022.7 25.4
2015-Jun-28 23:00N 27°17' W 030°51'8 0.7 1024.0 26.1
2015-Jun-28 10:00N 27°22' W 030°58'1 0.2 1023.5 25.3
2015-Jun-28 05:00N 27°21' W 030°58'9 0.5 1022.7 25.1
2015-Jun-27 12:00N 27°29' W 031°02'0 0.1 1024.1 25.0
2015-Jun-27 11:00N 27°29' W 031°02'4 0.2 1024.0 25.0
2015-Jun-26 16:00N 27°33' W 031°02'2 0.6 1025.5 25.2
2015-Jun-26 12:00N 27°34' W 031°04'1 0.4 1026.5 24.6
2015-Jun-26 09:00N 27°34' W 031°05'0 0.5 1026.0 24.4
2015-Jun-26 08:00N 27°33' W 031°05'0 0.1 1025.8 24.4
2015-Jun-26 07:00N 27°33' W 031°05'0 0.0 1025.4 24.4
2015-Jun-26 06:00N 27°33' W 031°05'1 0.6 1025.3 24.4
2015-Jun-26 04:00N 27°33' W 031°04'3 2.8 1025.5 24.4
2015-Jun-26 03:00N 27°35' W 031°02'2 0.5 1025.9 24.5
2015-Jun-25 23:00N 27°37' W 031°01'2 2.0 1026.6 24.6
2015-Jun-25 22:00N 27°35' W 031°02'5 1.7 1026.3 24.7
2015-Jun-25 19:00N 27°40' W 031°03'0 0.0 1025.5 25.0
2015-Jun-25 18:00N 27°40' W 031°03'0 0.0 1025.5 25.0
2015-Jun-25 16:00N 27°40' W 031°03'2 0.4 1025.5 25.0
2015-Jun-25 11:00N 27°41' W 031°05'0 0.0 1026.0 24.3
2015-Jun-25 10:00N 27°41' W 031°05'0 0.1 1026.0 24.3
2015-Jun-25 07:00N 27°41' W 031°05'3 0.4 1024.9 24.2
2015-Jun-24 23:00N 27°44' W 031°03'0 0.0 1025.9 24.3
2015-Jun-24 22:00N 27°44' W 031°03'4 1.5 1025.5 24.4
2015-Jun-24 19:00N 27°48' W 031°03'   1024.5 24.5

Dump ship's entire track history